ADDS METAR Data INFO
IDs: Format: Raw Decoded Include TAF

Data at: 0311 UTC 18 Aug 2017

METAR for:KFPK (Charotte/Beach Fld, MI, US)
Text:KFPK 180255Z AUTO 21006KT 10SM SCT075 24/17 A2973 RMK AO2 T02360171
Temperature: 23.6°C ( 74°F)
Dewpoint: 17.1°C ( 63°F) [RH = 67%]
Pressure (altimeter):29.73 inches Hg (1006.9 mb)
Winds:from the SSW (210 degrees) at 7 MPH (6 knots; 3.1 m/s)
Visibility:10 or more sm (16+ km)
Ceiling:at least 12,000 feet AGL
Clouds: scattered clouds at 7500 feet AGL
QC Flag:automated observation with no human augmentation

TAF for:KFPK (Charotte/Beach Fld, MI, US)
Text:No data found

METAR for:KLAN (Lansing/Capital City, MI, US)
Text:KLAN 180253Z 23010KT 10SM OVC070 24/18 A2973 RMK AO2 SLP061 T02390178 51008
Temperature: 23.9°C ( 75°F)
Dewpoint: 17.8°C ( 64°F) [RH = 69%]
Pressure (altimeter):29.73 inches Hg (1006.9 mb) [Sea level pressure: 1006.1 mb]
Winds:from the SW (230 degrees) at 12 MPH (10 knots; 5.1 m/s)
Visibility:10 or more sm (16+ km)
Ceiling:7000 feet AGL
Clouds: overcast cloud deck at 7000 feet AGL

TAF for:KLAN (Lansing/Capital City, MI, US) issued at 0212 UTC 18 Aug 2017
Text:KLAN 180212Z 1802/1824 24010KT P6SM VCSH BKN060
Forecast period:0200 to 0800 UTC 18 August 2017
Forecast type:FROM: standard forecast or significant change
Winds:from the WSW (240 degrees) at 12 MPH (10 knots; 5.1 m/s)
Visibility:6 or more sm (10+ km)
Ceiling:6000 feet AGL
Clouds: broken clouds at 6000 feet AGL
Weather:VCSH (showers in vicinity)
Text:FM180800 24010KT P6SM VCSH BKN025
Forecast period:0800 to 1100 UTC 18 August 2017
Forecast type:FROM: standard forecast or significant change
Winds:from the WSW (240 degrees) at 12 MPH (10 knots; 5.1 m/s)
Visibility:6 or more sm (10+ km)
Ceiling:2500 feet AGL
Clouds: broken clouds at 2500 feet AGL
Weather:VCSH (showers in vicinity)
Text:FM181100 26010KT P6SM VCSH BKN015
Forecast period:1100 to 1700 UTC 18 August 2017
Forecast type:FROM: standard forecast or significant change
Winds:from the W (260 degrees) at 12 MPH (10 knots; 5.1 m/s)
Visibility:6 or more sm (10+ km)
Ceiling:1500 feet AGL
Clouds: broken clouds at 1500 feet AGL
Weather:VCSH (showers in vicinity)
Text:FM181700 27012G20KT P6SM BKN030
Forecast period:1700 to 2000 UTC 18 August 2017
Forecast type:FROM: standard forecast or significant change
Winds:from the W (270 degrees) at 14 MPH (12 knots; 6.2 m/s) gusting to 23 MPH (20 knots; 10.3 m/s)
Visibility:6 or more sm (10+ km)
Ceiling:3000 feet AGL
Clouds: broken clouds at 3000 feet AGL
Text:FM182000 28012G20KT P6SM BKN040
Forecast period:2000 UTC 18 August 2017 to 0000 UTC 19 August 2017
Forecast type:FROM: standard forecast or significant change
Winds:from the W (280 degrees) at 14 MPH (12 knots; 6.2 m/s) gusting to 23 MPH (20 knots; 10.3 m/s)
Visibility:6 or more sm (10+ km)
Ceiling:4000 feet AGL
Clouds: broken clouds at 4000 feet AGL